Time;durP1;ratioP1;P1;durP2;ratioP2;P2;SDS_P1;SDS_P2;PMS_P1;PMS_P2;Temp;Humidity;BMP_temperature;BMP_pressure;BME280_temperature;BME280_humidity;BME280_pressure;Samples;Min_cycle;Max_cycle;Signal;HPM_P1;HPM_P2
2021/12/04 00:01:09;;;;;;;3.35;1.27;;;13.60;99.90;;;;;;5100331;28;20039;-60
2021/12/04 00:03:41;;;;;;;3.58;1.88;;;13.60;99.90;;;;;;5100949;28;20391;-60
2021/12/04 00:06:44;;;;;;;1.98;1.38;;;13.60;99.90;;;;;;5098436;28;20036;-60
2021/12/04 00:09:05;;;;;;;2.45;1.58;;;13.60;99.90;;;;;;5106313;28;20043;-61
2021/12/04 00:11:36;;;;;;;2.88;1.30;;;13.60;99.90;;;;;;5088319;28;20093;-61
2021/12/04 00:14:03;;;;;;;3.85;1.70;;;13.50;99.90;;;;;;5095122;28;20101;-60
2021/12/04 00:16:31;;;;;;;2.42;1.77;;;13.50;99.90;;;;;;5102989;28;20469;-61
2021/12/04 00:18:58;;;;;;;2.17;1.58;;;13.50;99.90;;;;;;5114563;27;20036;-60
2021/12/04 00:21:26;;;;;;;3.80;1.25;;;13.50;99.90;;;;;;5105211;28;20496;-61
2021/12/04 00:23:53;;;;;;;3.30;1.40;;;13.50;99.90;;;;;;5110319;27;20077;-61
2021/12/04 00:26:21;;;;;;;2.85;1.52;;;13.50;99.90;;;;;;5102009;28;20469;-60
2021/12/04 00:28:48;;;;;;;2.65;1.23;;;13.50;99.90;;;;;;5094532;28;20089;-60
2021/12/04 00:31:16;;;;;;;3.03;1.00;;;13.50;99.90;;;;;;5098653;28;20111;-60
2021/12/04 00:33:44;;;;;;;5.07;2.03;;;13.40;99.90;;;;;;5099932;28;20068;-61
2021/12/04 00:36:26;;;;;;;5.40;1.80;;;13.50;99.90;;;;;;5108534;28;20043;-60
2021/12/04 00:49:58;;;;;;;2.85;1.42;;;13.50;99.90;;;;;;5101379;28;20043;-60
2021/12/04 00:52:26;;;;;;;6.25;1.58;;;13.60;99.90;;;;;;5111955;28;20031;-61
2021/12/04 00:54:55;;;;;;;6.30;2.75;;;13.60;99.90;;;;;;5075252;28;20413;-60
2021/12/04 00:57:23;;;;;;;5.40;2.63;;;13.60;99.90;;;;;;5105182;28;20032;-61
2021/12/04 00:59:50;;;;;;;3.45;1.85;;;13.60;99.90;;;;;;5104345;28;20036;-61
2021/12/04 01:02:18;;;;;;;2.58;1.75;;;13.60;99.90;;;;;;5100694;28;20515;-61
2021/12/04 01:04:47;;;;;;;2.90;1.50;;;13.60;99.90;;;;;;5095999;28;20469;-61
2021/12/04 01:07:15;;;;;;;2.38;1.67;;;13.60;99.90;;;;;;5085753;28;20120;-60
2021/12/04 01:09:44;;;;;;;4.78;1.65;;;13.60;99.90;;;;;;5092941;28;20123;-60
2021/12/04 01:12:12;;;;;;;2.65;1.67;;;13.70;99.90;;;;;;5114060;28;20041;-61
2021/12/04 01:14:40;;;;;;;2.70;1.50;;;13.60;99.90;;;;;;5106906;28;20114;-60
2021/12/04 01:17:07;;;;;;;4.10;1.90;;;13.70;99.90;;;;;;5083400;28;20065;-61
2021/12/04 01:19:36;;;;;;;3.70;1.73;;;13.60;99.90;;;;;;5086812;28;20055;-60
2021/12/04 01:22:05;;;;;;;9.63;1.90;;;13.60;99.90;;;;;;5085416;28;20428;-60
2021/12/04 01:24:33;;;;;;;6.25;1.70;;;13.60;99.90;;;;;;5097732;28;20470;-60
2021/12/04 01:27:00;;;;;;;4.13;1.92;;;13.60;99.90;;;;;;5106901;28;20139;-61
2021/12/04 01:29:28;;;;;;;7.78;1.92;;;13.60;99.90;;;;;;5102168;28;20058;-61
2021/12/04 01:31:55;;;;;;;3.60;1.50;;;13.60;99.90;;;;;;5098448;28;20036;-60
2021/12/04 01:34:23;;;;;;;3.03;2.22;;;13.60;99.90;;;;;;5084867;28;20032;-60
2021/12/04 01:36:51;;;;;;;6.03;2.38;;;13.50;99.90;;;;;;5114304;28;20509;-61
2021/12/04 01:39:19;;;;;;;6.00;2.17;;;13.50;99.90;;;;;;5108995;28;20028;-60
2021/12/04 01:41:46;;;;;;;5.75;2.35;;;13.50;99.90;;;;;;5095003;28;20067;-60
2021/12/04 01:44:14;;;;;;;4.82;2.40;;;13.60;99.90;;;;;;5101080;28;20134;-60
2021/12/04 01:46:42;;;;;;;6.20;3.33;;;13.60;99.90;;;;;;5104673;28;20512;-61
2021/12/04 01:49:09;;;;;;;7.38;3.00;;;13.60;99.90;;;;;;5095207;28;20079;-61
2021/12/04 01:51:37;;;;;;;4.60;2.28;;;13.60;99.90;;;;;;5118719;27;20035;-62
2021/12/04 01:54:05;;;;;;;4.68;1.90;;;13.60;99.90;;;;;;5098862;28;20060;-61
2021/12/04 01:56:34;;;;;;;4.28;1.80;;;13.60;99.90;;;;;;5117049;28;20066;-62
2021/12/04 01:59:02;;;;;;;3.10;1.60;;;13.60;99.90;;;;;;5116879;28;20458;-61
2021/12/04 02:01:32;;;;;;;3.38;1.73;;;13.60;99.90;;;;;;5116919;28;20389;-61
2021/12/04 02:04:05;;;;;;;4.28;1.63;;;13.60;99.90;;;;;;5116909;28;20032;-61
2021/12/04 02:06:33;;;;;;;4.30;2.03;;;13.60;99.90;;;;;;5098859;28;20066;-61
2021/12/04 02:09:01;;;;;;;6.93;2.55;;;13.60;99.90;;;;;;5116827;28;20048;-61
2021/12/04 02:11:28;;;;;;;3.90;2.10;;;13.60;99.90;;;;;;5116546;28;20114;-61
2021/12/04 02:13:56;;;;;;;2.88;1.80;;;13.50;99.90;;;;;;5098461;28;20484;-61
2021/12/04 02:16:24;;;;;;;3.78;1.85;;;13.50;99.90;;;;;;5098496;28;20381;-61
2021/12/04 02:18:51;;;;;;;4.60;1.55;;;13.50;99.90;;;;;;5081756;28;20224;-61
2021/12/04 02:21:19;;;;;;;2.90;1.70;;;13.50;99.90;;;;;;5116476;28;20035;-61
2021/12/04 02:23:47;;;;;;;2.97;1.75;;;13.50;99.90;;;;;;5116710;28;20474;-61
2021/12/04 02:26:14;;;;;;;4.82;1.60;;;13.50;99.90;;;;;;5097594;28;20039;-61
2021/12/04 02:28:46;;;;;;;3.08;1.77;;;13.50;99.90;;;;;;5116523;28;20061;-61
2021/12/04 02:31:16;;;;;;;3.80;1.25;;;13.50;99.90;;;;;;5116476;28;20088;-61
2021/12/04 02:33:44;;;;;;;4.57;1.50;;;13.40;99.90;;;;;;5098232;28;20066;-61
2021/12/04 02:36:12;;;;;;;1.90;1.15;;;13.40;99.90;;;;;;5098125;28;20552;-60
2021/12/04 02:38:40;;;;;;;6.13;1.70;;;13.30;99.90;;;;;;5116407;28;20036;-61
2021/12/04 02:41:09;;;;;;;4.78;1.63;;;13.30;99.90;;;;;;5097989;28;20112;-61
2021/12/04 02:43:37;;;;;;;3.90;1.63;;;13.30;99.90;;;;;;5116196;28;20038;-61
2021/12/04 02:46:04;;;;;;;3.42;1.55;;;13.30;99.90;;;;;;5081276;28;20118;-61
2021/12/04 02:48:32;;;;;;;3.25;1.40;;;13.20;99.90;;;;;;5115990;28;20055;-61
2021/12/04 02:50:59;;;;;;;3.90;1.42;;;13.30;99.90;;;;;;5115990;28;20111;-61
2021/12/04 02:53:27;;;;;;;5.20;2.08;;;13.20;99.90;;;;;;5097789;28;20040;-61
2021/12/04 02:55:55;;;;;;;3.90;1.33;;;13.20;99.90;;;;;;5081335;28;20051;-61
2021/12/04 02:58:22;;;;;;;4.40;1.88;;;13.20;99.90;;;;;;5115817;28;20134;-61
2021/12/04 03:00:51;;;;;;;5.03;1.98;;;13.10;99.90;;;;;;5097482;28;20143;-61
2021/12/04 03:03:19;;;;;;;4.75;1.75;;;13.10;99.90;;;;;;5097578;28;20080;-61
2021/12/04 03:05:51;;;;;;;3.22;1.48;;;13.10;99.90;;;;;;5115661;28;20036;-61
2021/12/04 03:08:21;;;;;;;3.03;1.48;;;13.10;99.90;;;;;;5115776;28;20350;-60
2021/12/04 03:10:49;;;;;;;3.92;1.63;;;13.10;99.90;;;;;;5080822;28;20031;-61
2021/12/04 03:13:19;;;;;;;7.72;2.42;;;13.10;99.90;;;;;;5115642;28;20039;-61
2021/12/04 03:15:55;;;;;;;3.05;1.08;;;13.00;99.90;;;;;;5115758;28;20504;-61
2021/12/04 03:18:23;;;;;;;3.97;1.80;;;13.00;99.90;;;;;;5115451;28;20072;-61
2021/12/04 03:20:54;;;;;;;2.95;1.95;;;13.00;99.90;;;;;;5115347;28;20040;-61
2021/12/04 03:23:34;;;;;;;4.03;1.63;;;13.00;99.90;;;;;;5097131;28;20066;-61
2021/12/04 03:26:04;;;;;;;2.08;1.40;;;13.00;99.90;;;;;;5097322;28;20093;-61
2021/12/04 03:28:32;;;;;;;4.78;2.15;;;13.00;99.90;;;;;;5115283;28;20469;-61
2021/12/04 03:31:10;;;;;;;3.45;1.17;;;13.00;99.90;;;;;;5115105;28;20477;-61
2021/12/04 03:41:56;;;;;;;4.95;1.50;;;13.00;99.90;;;;;;5097037;28;20373;-61
2021/12/04 03:44:24;;;;;;;3.65;1.95;;;13.00;99.90;;;;;;5114871;28;20421;-61
2021/12/04 03:46:52;;;;;;;4.50;1.60;;;13.10;99.90;;;;;;5096840;28;20046;-61
2021/12/04 03:49:19;;;;;;;3.40;1.88;;;13.10;99.90;;;;;;5114725;28;20492;-61
2021/12/04 03:51:47;;;;;;;1.80;1.17;;;13.10;99.90;;;;;;5096624;28;20106;-61
2021/12/04 03:54:14;;;;;;;2.53;1.63;;;13.10;99.90;;;;;;5114673;28;20054;-61
2021/12/04 03:56:42;;;;;;;6.57;1.40;;;13.10;99.90;;;;;;5097030;28;20415;-61
2021/12/04 03:59:10;;;;;;;2.13;0.95;;;13.20;99.90;;;;;;5079788;28;20465;-61
2021/12/04 04:01:37;;;;;;;5.65;1.27;;;13.20;99.90;;;;;;5114689;28;20138;-61
2021/12/04 04:04:05;;;;;;;3.35;2.00;;;13.20;99.90;;;;;;5114633;28;20374;-61
2021/12/04 04:06:33;;;;;;;3.35;1.67;;;13.10;99.90;;;;;;5114603;28;20038;-61
2021/12/04 04:09:03;;;;;;;4.07;1.75;;;13.20;99.90;;;;;;5114385;28;20046;-61
2021/12/04 04:11:35;;;;;;;2.97;1.85;;;13.20;99.90;;;;;;5114081;28;20085;-61
2021/12/04 04:14:04;;;;;;;3.67;1.83;;;13.10;99.90;;;;;;5079703;28;20043;-60
2021/12/04 04:16:36;;;;;;;4.35;1.75;;;13.20;99.90;;;;;;5114450;28;20035;-60
2021/12/04 04:19:04;;;;;;;3.88;1.48;;;13.20;99.90;;;;;;5079500;28;20048;-60
2021/12/04 04:21:32;;;;;;;1.60;1.23;;;13.20;99.90;;;;;;5095952;28;20086;-60
2021/12/04 04:24:01;;;;;;;1.88;1.02;;;13.20;99.90;;;;;;5097070;28;20088;-60
2021/12/04 04:26:29;;;;;;;2.78;1.30;;;13.20;99.90;;;;;;5114273;28;20481;-61
2021/12/04 04:28:56;;;;;;;3.90;1.85;;;13.20;99.90;;;;;;5096210;28;20035;-61
2021/12/04 04:31:24;;;;;;;3.17;1.70;;;13.20;99.90;;;;;;5114245;28;20043;-60
2021/12/04 04:33:57;;;;;;;3.45;1.73;;;13.20;99.90;;;;;;5096150;28;20036;-61
2021/12/04 05:20:40;;;;;;;4.28;1.92;;;12.80;99.90;;;;;;5104540;28;20048;-61
2021/12/04 05:23:10;;;;;;;4.32;2.17;;;12.80;99.90;;;;;;5106580;28;20040;-60
2021/12/04 05:25:37;;;;;;;3.28;1.20;;;12.70;99.90;;;;;;5103897;28;20484;-60
2021/12/04 05:28:06;;;;;;;4.72;1.20;;;12.70;99.90;;;;;;5085143;28;20076;-60
2021/12/04 05:30:34;;;;;;;2.38;1.60;;;12.70;99.90;;;;;;5088175;28;20426;-61
2021/12/04 05:33:03;;;;;;;5.90;1.83;;;12.70;99.90;;;;;;5110332;28;20139;-61
2021/12/04 05:35:30;;;;;;;4.88;1.50;;;12.70;99.90;;;;;;5092063;28;20035;-61
2021/12/04 05:37:58;;;;;;;4.15;1.80;;;12.60;99.90;;;;;;5092427;28;20028;-61
2021/12/04 05:40:26;;;;;;;2.35;1.60;;;12.70;99.90;;;;;;5113688;28;20046;-60
2021/12/04 05:43:00;;;;;;;3.42;1.30;;;12.60;99.90;;;;;;5097667;28;20047;-61
2021/12/04 05:45:30;;;;;;;2.58;1.27;;;12.60;99.90;;;;;;5108147;28;20040;-61
2021/12/04 05:48:06;;;;;;;4.47;1.70;;;12.60;99.90;;;;;;5102153;28;20044;-61
2021/12/04 05:53:40;;;;;;;1.92;1.13;;;12.60;99.90;;;;;;5052545;28;20485;-61
2021/12/04 05:56:08;;;;;;;2.90;1.45;;;12.60;99.90;;;;;;5095512;28;20031;-61
2021/12/04 05:58:35;;;;;;;3.42;1.55;;;12.60;99.90;;;;;;5095590;28;20098;-61
2021/12/04 06:01:07;;;;;;;4.25;1.98;;;12.60;99.90;;;;;;5094737;28;20054;-61
2021/12/04 06:03:35;;;;;;;3.40;1.17;;;12.60;99.90;;;;;;5094519;28;20040;-61
2021/12/04 06:06:04;;;;;;;2.33;1.75;;;12.70;99.90;;;;;;5114312;28;20077;-60
2021/12/04 06:08:31;;;;;;;3.85;2.03;;;12.70;99.90;;;;;;5095772;28;20093;-60
2021/12/04 06:10:59;;;;;;;4.53;1.95;;;12.70;99.90;;;;;;5098929;28;20051;-60
2021/12/04 06:13:27;;;;;;;6.15;2.25;;;12.70;99.90;;;;;;5104519;28;20039;-60
2021/12/04 06:15:55;;;;;;;4.18;1.60;;;12.80;99.90;;;;;;5080611;28;20057;-61
2021/12/04 06:18:23;;;;;;;3.30;2.28;;;12.90;99.90;;;;;;5098342;28;20097;-61
2021/12/04 06:23:37;;;;;;;6.47;2.67;;;13.70;99.90;;;;;;5081473;28;20367;-61
2021/12/04 06:26:09;;;;;;;6.68;2.63;;;14.30;99.90;;;;;;5098306;28;20046;-61
2021/12/04 06:28:37;;;;;;;4.78;2.17;;;15.00;99.10;;;;;;5116558;28;20035;-61
2021/12/04 06:31:07;;;;;;;11.50;2.80;;;15.60;98.40;;;;;;5097891;28;20062;-61
2021/12/04 06:33:36;;;;;;;4.20;1.50;;;16.20;97.50;;;;;;5115606;28;20485;-61
2021/12/04 06:36:04;;;;;;;4.93;2.00;;;16.80;96.80;;;;;;5116329;28;20040;-61
2021/12/04 06:38:33;;;;;;;3.50;1.50;;;17.40;96.10;;;;;;5116084;28;20050;-61
2021/12/04 06:41:00;;;;;;;2.97;2.05;;;18.00;95.40;;;;;;5116093;28;20048;-61
2021/12/04 06:43:28;;;;;;;3.38;1.50;;;18.60;94.60;;;;;;5115934;28;20039;-61
2021/12/04 06:45:58;;;;;;;4.13;1.42;;;19.10;93.90;;;;;;5098049;28;20048;-61
2021/12/04 06:49:14;;;;;;;4.03;1.67;;;19.70;93.10;;;;;;5115778;28;20034;-61
2021/12/04 06:54:34;;;;;;;7.13;3.15;;;20.40;91.70;;;;;;5097940;28;20138;-61
2021/12/04 06:56:41;;;;;;;4.78;3.05;;;20.40;91.60;;;;;;5105666;28;20050;-61
2021/12/04 06:59:13;;;;;;;8.18;2.33;;;20.30;91.60;;;;;;5115963;28;20058;-61
2021/12/04 07:01:41;;;;;;;5.07;1.40;;;20.20;91.60;;;;;;5115930;28;20051;-61
2021/12/04 07:04:10;;;;;;;3.15;1.70;;;20.30;91.30;;;;;;5097533;28;20472;-61
2021/12/04 07:06:37;;;;;;;3.75;2.50;;;19.90;91.50;;;;;;5115586;28;20066;-61
2021/12/04 07:09:06;;;;;;;8.48;2.33;;;19.10;92.10;;;;;;5097587;28;20070;-61
2021/12/04 07:11:33;;;;;;;4.22;2.47;;;18.20;93.30;;;;;;5080841;28;20039;-61
2021/12/04 07:14:01;;;;;;;5.07;2.15;;;17.40;94.50;;;;;;5097480;28;20105;-61
2021/12/04 07:16:28;;;;;;;6.55;3.45;;;17.00;95.30;;;;;;5096950;28;20028;-61
2021/12/04 07:18:56;;;;;;;5.15;3.17;;;17.10;95.40;;;;;;5115399;28;20035;-61
2021/12/04 07:21:24;;;;;;;7.15;2.63;;;17.30;95.20;;;;;;5115621;28;20031;-61
2021/12/04 07:23:52;;;;;;;4.35;2.20;;;17.00;95.20;;;;;;5097038;28;20046;-61
2021/12/04 07:26:20;;;;;;;5.22;1.92;;;16.90;95.80;;;;;;5097409;28;20038;-61
2021/12/04 07:28:47;;;;;;;3.80;2.10;;;17.60;95.30;;;;;;5097088;28;20114;-61
2021/12/04 07:31:15;;;;;;;4.72;2.35;;;18.80;94.00;;;;;;5096823;28;20051;-61
2021/12/04 07:33:43;;;;;;;3.88;2.50;;;19.70;92.70;;;;;;5097270;28;20462;-61
2021/12/04 07:36:10;;;;;;;4.88;2.30;;;20.30;92.00;;;;;;5115138;28;20035;-61
2021/12/04 07:38:38;;;;;;;4.22;2.63;;;20.70;91.20;;;;;;5115393;28;20035;-61
2021/12/04 07:41:07;;;;;;;5.43;2.50;;;20.80;90.90;;;;;;5115058;28;20043;-61
2021/12/04 07:43:35;;;;;;;4.97;2.58;;;21.00;90.70;;;;;;5114683;28;20114;-61
2021/12/04 07:46:03;;;;;;;5.47;3.15;;;21.00;90.50;;;;;;5114372;28;20083;-61
2021/12/04 07:48:31;;;;;;;5.32;2.10;;;20.70;90.20;;;;;;5114867;28;20035;-61
2021/12/04 07:51:02;;;;;;;9.07;2.78;;;20.00;90.50;;;;;;5114640;28;20044;-61
2021/12/04 07:53:31;;;;;;;8.90;2.95;;;19.20;91.00;;;;;;5114928;28;20031;-61
2021/12/04 07:55:59;;;;;;;7.32;3.03;;;18.30;92.00;;;;;;5114776;28;20036;-61
2021/12/04 07:58:27;;;;;;;6.13;3.00;;;17.60;92.80;;;;;;5114570;28;20044;-61
2021/12/04 08:00:55;;;;;;;4.55;2.30;;;17.30;93.20;;;;;;5096602;28;20047;-61
2021/12/04 08:03:23;;;;;;;5.38;1.58;;;17.30;93.30;;;;;;5114395;28;20032;-61
2021/12/04 08:05:51;;;;;;;2.05;1.30;;;17.60;93.10;;;;;;5114275;28;20039;-61
2021/12/04 08:08:18;;;;;;;6.45;1.75;;;18.10;92.40;;;;;;5114565;28;20032;-61
2021/12/04 08:10:47;;;;;;;5.30;2.17;;;18.70;92.10;;;;;;5114399;28;20126;-61
2021/12/04 08:13:14;;;;;;;2.97;1.90;;;19.20;91.40;;;;;;5114065;28;20078;-61
2021/12/04 08:15:42;;;;;;;3.85;1.77;;;19.60;91.10;;;;;;5114336;28;20135;-61
2021/12/04 08:18:12;;;;;;;3.20;1.52;;;19.80;90.80;;;;;;5114217;28;20370;-61
2021/12/04 08:20:39;;;;;;;4.43;1.40;;;20.00;90.60;;;;;;5114124;28;20039;-61
2021/12/04 08:23:07;;;;;;;3.10;1.83;;;19.90;90.50;;;;;;5095990;28;20053;-61
2021/12/04 08:25:36;;;;;;;3.83;1.83;;;19.80;90.60;;;;;;5114140;28;20036;-61
2021/12/04 08:28:05;;;;;;;4.00;1.75;;;19.70;90.80;;;;;;5114080;28;20044;-61
2021/12/04 08:30:37;;;;;;;7.15;1.38;;;19.50;91.00;;;;;;5113844;28;20062;-61
2021/12/04 08:33:05;;;;;;;3.08;1.92;;;19.30;91.20;;;;;;5113699;28;20084;-61
2021/12/04 08:35:38;;;;;;;2.50;1.60;;;19.10;91.70;;;;;;5114105;28;20127;-61
2021/12/04 08:38:11;;;;;;;3.55;2.22;;;18.80;91.60;;;;;;5114012;28;20040;-61
2021/12/04 08:40:40;;;;;;;5.78;2.15;;;18.40;91.50;;;;;;5113895;28;20031;-61
2021/12/04 08:43:09;;;;;;;4.45;1.70;;;18.30;91.60;;;;;;5095502;28;20516;-61
2021/12/04 08:45:38;;;;;;;5.15;2.47;;;18.00;92.10;;;;;;5113758;28;20048;-60
2021/12/04 08:48:06;;;;;;;3.65;1.75;;;17.90;92.40;;;;;;5113783;28;20042;-60
2021/12/04 08:50:35;;;;;;;5.05;1.85;;;17.90;92.70;;;;;;5113967;28;20074;-61
2021/12/04 08:53:04;;;;;;;3.75;1.40;;;17.80;92.60;;;;;;5113539;28;20496;-61
2021/12/04 08:55:35;;;;;;;3.10;1.50;;;17.80;92.70;;;;;;5096269;28;20401;-61
2021/12/04 08:58:04;;;;;;;3.65;1.80;;;17.80;92.80;;;;;;5117993;28;20035;-61
2021/12/04 09:00:46;;;;;;;4.45;2.15;;;17.60;92.90;;;;;;5100179;28;20039;-60
2021/12/04 09:03:19;;;;;;;4.80;2.75;;;17.20;93.20;;;;;;5117864;28;20043;-61
2021/12/04 09:05:47;;;;;;;2.35;1.52;;;16.90;93.70;;;;;;5117765;28;20051;-60
2021/12/04 09:08:14;;;;;;;3.53;2.08;;;16.60;94.40;;;;;;5117868;28;20062;-61
2021/12/04 09:10:43;;;;;;;4.38;2.15;;;16.20;94.80;;;;;;5099776;28;20040;-61
2021/12/04 09:13:11;;;;;;;7.90;2.55;;;15.90;95.30;;;;;;5099259;28;20473;-60
2021/12/04 09:15:40;;;;;;;7.82;3.40;;;15.70;95.70;;;;;;5100077;28;20043;-60
2021/12/04 09:18:08;;;;;;;4.57;2.80;;;15.50;96.10;;;;;;5117483;28;20039;-61
2021/12/04 09:20:36;;;;;;;4.88;2.53;;;15.40;96.40;;;;;;5117708;28;20035;-61
2021/12/04 09:23:07;;;;;;;4.07;3.20;;;15.20;96.60;;;;;;5099712;28;20043;-61
2021/12/04 09:25:38;;;;;;;4.88;2.88;;;15.20;97.00;;;;;;5117632;28;20040;-60
2021/12/04 09:28:17;;;;;;;5.32;2.25;;;15.20;97.20;;;;;;5098910;28;20481;-61
2021/12/04 09:34:02;;;;;;;3.90;2.38;;;15.00;97.10;;;;;;5099363;28;20044;-61
2021/12/04 09:36:46;;;;;;;5.18;2.40;;;15.00;97.50;;;;;;5099062;28;20043;-61
2021/12/04 10:32:25;;;;;;;4.57;2.10;;;14.70;97.10;;;;;;5116488;28;20040;-60
2021/12/04 10:34:54;;;;;;;;;;;14.60;97.10;;;;;;5116542;28;20046;-61
2021/12/04 10:37:28;;;;;;;6.53;2.67;;;14.60;96.90;;;;;;5109306;28;19916;-61
2021/12/04 10:40:00;;;;;;;5.28;2.05;;;14.70;96.70;;;;;;5113747;28;20143;-61
2021/12/04 10:42:38;;;;;;;3.83;2.28;;;14.70;96.60;;;;;;5129016;27;20033;-60
2021/12/04 10:45:06;;;;;;;9.50;2.55;;;14.70;96.40;;;;;;5118305;27;20052;-61
2021/12/04 10:47:34;;;;;;;4.22;1.75;;;14.70;96.60;;;;;;5124792;27;20130;-61
2021/12/04 10:50:24;;;;;;;5.57;1.70;;;14.80;96.50;;;;;;5125804;27;20035;-61
2021/12/04 10:53:00;;;;;;;3.97;1.80;;;14.80;96.40;;;;;;5106191;28;20488;-61
2021/12/04 11:43:18;;;;;;;3.63;2.38;;;15.80;92.90;;;;;;5096430;28;20373;-60
2021/12/04 11:48:32;;;;;;;7.07;1.90;;;15.60;92.70;;;;;;5114909;28;20378;-60
2021/12/04 11:51:01;;;;;;;4.90;2.50;;;15.70;92.40;;;;;;5114684;28;20042;-60
2021/12/04 11:53:32;;;;;;;3.95;2.25;;;15.80;92.20;;;;;;5114327;28;20035;-61
2021/12/04 11:56:00;;;;;;;5.07;2.05;;;15.90;92.30;;;;;;5114704;28;20032;-60
2021/12/04 11:58:31;;;;;;;4.82;1.70;;;15.90;92.10;;;;;;5114663;28;20481;-61
2021/12/04 12:01:05;;;;;;;7.00;1.90;;;15.90;91.80;;;;;;5079857;28;20032;-61
2021/12/04 12:03:35;;;;;;;3.90;2.28;;;15.80;91.70;;;;;;5114362;28;20035;-61
2021/12/04 12:06:10;;;;;;;7.45;2.40;;;15.80;90.70;;;;;;5114221;28;20058;-60
2021/12/04 12:08:42;;;;;;;3.22;1.70;;;15.80;91.10;;;;;;5114398;28;20042;-60
2021/12/04 12:11:11;;;;;;;5.00;2.10;;;15.70;91.60;;;;;;5077335;28;20043;-60
2021/12/04 12:13:45;;;;;;;3.92;1.48;;;15.60;91.80;;;;;;5112931;28;20036;-60
2021/12/04 12:16:29;;;;;;;3.53;1.83;;;15.70;91.90;;;;;;5112894;28;20486;-59
2021/12/04 12:19:08;;;;;;;3.30;1.60;;;15.80;92.10;;;;;;5078028;28;20035;-61
2021/12/04 12:21:59;;;;;;;5.20;1.98;;;15.80;92.30;;;;;;5094575;28;20140;-61
2021/12/04 12:27:42;;;;;;;7.03;3.10;;;16.00;92.10;;;;;;5112852;28;20155;-61
2021/12/04 12:36:03;;;;;;;4.32;2.25;;;16.20;91.90;;;;;;5094349;28;20392;-61
2021/12/04 12:38:48;;;;;;;5.57;1.75;;;16.20;92.30;;;;;;5112612;28;20124;-61
2021/12/04 12:41:25;;;;;;;3.95;1.90;;;16.20;92.80;;;;;;5112739;28;20080;-61
2021/12/04 12:44:15;;;;;;;3.58;2.20;;;16.20;93.00;;;;;;5112545;28;20039;-61
2021/12/04 12:46:57;;;;;;;5.85;1.90;;;16.20;92.70;;;;;;5105457;28;20131;-61
2021/12/04 12:49:26;;;;;;;4.40;2.22;;;16.20;93.00;;;;;;5094434;28;20358;-61
2021/12/04 12:52:03;;;;;;;2.33;1.52;;;16.20;93.20;;;;;;5112557;28;20057;-61
2021/12/04 12:54:54;;;;;;;6.43;2.10;;;16.10;93.40;;;;;;5112623;28;20032;-61
2021/12/04 12:57:31;;;;;;;3.65;2.10;;;16.10;93.40;;;;;;5112127;28;20058;-61
2021/12/04 13:11:48;;;;;;;4.63;1.98;;;15.90;93.50;;;;;;5077704;28;20391;-61
2021/12/04 13:14:18;;;;;;;2.22;1.67;;;15.80;93.80;;;;;;5112295;28;20067;-61
2021/12/04 13:16:57;;;;;;;4.40;1.60;;;15.80;94.30;;;;;;5094338;28;20086;-61
2021/12/04 13:19:26;;;;;;;4.45;1.73;;;15.70;94.50;;;;;;5094204;28;20059;-61
2021/12/04 13:22:03;;;;;;;3.83;2.35;;;15.70;94.70;;;;;;5112311;28;20282;-61
2021/12/04 13:24:35;;;;;;;4.55;2.13;;;15.70;95.00;;;;;;5092157;28;20043;-61
2021/12/04 13:29:39;;;;;;;3.75;2.00;;;15.70;94.70;;;;;;5099253;28;20032;-61
2021/12/04 13:32:10;;;;;;;2.67;1.58;;;15.70;94.90;;;;;;5101031;28;20036;-61
2021/12/04 13:34:40;;;;;;;4.95;2.05;;;15.60;95.20;;;;;;5101970;28;20028;-61
2021/12/04 13:37:09;;;;;;;4.60;1.90;;;15.60;95.20;;;;;;5113814;28;20039;-61
2021/12/04 13:39:40;;;;;;;3.70;2.00;;;15.50;95.30;;;;;;5086182;28;20385;-61
2021/12/04 13:42:08;;;;;;;5.72;2.83;;;15.50;95.30;;;;;;5101337;28;20496;-62
2021/12/04 13:44:36;;;;;;;4.93;2.58;;;15.40;95.50;;;;;;5109453;28;20035;-61
2021/12/04 13:47:08;;;;;;;4.05;2.47;;;15.40;95.70;;;;;;5102271;28;20498;-61
2021/12/04 13:50:06;;;;;;;5.40;2.50;;;15.40;96.00;;;;;;5104682;28;20037;-61
2021/12/04 13:52:34;;;;;;;8.70;2.75;;;15.30;96.00;;;;;;5098869;28;20032;-61
2021/12/04 13:55:09;;;;;;;2.60;1.75;;;15.30;95.60;;;;;;5090450;28;20051;-61
2021/12/04 13:57:41;;;;;;;5.72;2.33;;;15.20;95.70;;;;;;5081356;27;20063;-61
2021/12/04 14:00:12;;;;;;;4.90;2.22;;;15.10;95.60;;;;;;5099600;28;20036;-61
2021/12/04 14:02:39;;;;;;;5.38;2.35;;;15.10;95.90;;;;;;5106544;27;20374;-61
2021/12/04 14:05:15;;;;;;;5.03;1.90;;;15.10;95.90;;;;;;5092654;28;20154;-61
2021/12/04 14:07:55;;;;;;;3.72;2.03;;;15.00;96.20;;;;;;5072195;27;20474;-61
2021/12/04 14:10:26;;;;;;;6.82;2.40;;;15.00;96.20;;;;;;5096405;28;20509;-61
2021/12/04 14:12:57;;;;;;;5.07;2.50;;;15.00;96.40;;;;;;5106328;28;20050;-61
2021/12/04 14:15:26;;;;;;;3.17;1.65;;;14.90;96.50;;;;;;5114373;28;20036;-60
2021/12/04 14:18:00;;;;;;;4.25;1.70;;;14.80;96.60;;;;;;5078260;28;20043;-62
2021/12/04 14:20:29;;;;;;;3.17;1.60;;;14.80;96.60;;;;;;5098477;27;20474;-61
2021/12/04 14:22:57;;;;;;;4.00;1.80;;;14.80;96.80;;;;;;5090361;28;20054;-61
2021/12/04 14:25:27;;;;;;;4.47;2.88;;;14.70;96.90;;;;;;5089598;28;20037;-61
2021/12/04 14:27:57;;;;;;;4.30;2.55;;;14.70;97.00;;;;;;5078370;28;20412;-60
2021/12/04 14:30:36;;;;;;;3.45;1.42;;;14.70;97.10;;;;;;5095673;27;20046;-61
2021/12/04 14:33:06;;;;;;;6.55;2.10;;;14.70;97.10;;;;;;5101225;28;20266;-61
2021/12/04 14:35:37;;;;;;;3.60;2.17;;;14.60;97.10;;;;;;5088394;28;20400;-61
2021/12/04 14:38:08;;;;;;;6.25;3.00;;;14.60;97.20;;;;;;5087218;28;20377;-61
2021/12/04 14:40:46;;;;;;;4.18;3.15;;;14.60;97.30;;;;;;5098145;28;20055;-61
2021/12/04 14:43:27;;;;;;;7.88;3.75;;;14.50;97.30;;;;;;5091169;28;20104;-61
2021/12/04 14:45:56;;;;;;;7.10;3.65;;;14.50;97.50;;;;;;5078583;28;20489;-61
2021/12/04 14:48:27;;;;;;;5.13;3.28;;;14.50;97.30;;;;;;5088799;28;20431;-61
2021/12/04 14:51:02;;;;;;;7.82;3.88;;;14.40;97.20;;;;;;5095751;28;20047;-61
2021/12/04 14:53:30;;;;;;;8.05;4.32;;;14.30;97.20;;;;;;5115114;27;20031;-61
2021/12/04 14:55:59;;;;;;;7.40;4.35;;;14.40;97.30;;;;;;5105160;28;20043;-61
2021/12/04 14:58:28;;;;;;;5.82;3.40;;;14.30;97.30;;;;;;5091460;28;20050;-61
2021/12/04 15:01:03;;;;;;;7.53;4.28;;;14.30;97.50;;;;;;5095144;28;20145;-61
2021/12/04 15:03:32;;;;;;;9.80;5.35;;;14.30;97.60;;;;;;5113673;28;20044;-61
2021/12/04 15:06:04;;;;;;;12.13;5.90;;;14.30;97.80;;;;;;5079071;28;20048;-61
2021/12/04 15:08:38;;;;;;;10.68;5.28;;;14.30;97.90;;;;;;5089791;28;20404;-60
2021/12/04 15:11:13;;;;;;;6.38;3.67;;;14.30;98.00;;;;;;5113492;28;20051;-61
2021/12/04 15:13:51;;;;;;;5.03;2.85;;;14.20;98.00;;;;;;5095679;28;20152;-60
2021/12/04 15:16:36;;;;;;;5.35;3.00;;;14.20;98.20;;;;;;5095541;28;20071;-60
2021/12/04 15:19:19;;;;;;;6.90;3.85;;;14.20;98.30;;;;;;5113706;28;20040;-60
2021/12/04 15:21:57;;;;;;;8.65;4.30;;;14.10;98.40;;;;;;5113679;28;20043;-61
2021/12/04 15:24:33;;;;;;;4.10;2.90;;;14.10;98.50;;;;;;5095640;28;20043;-60
2021/12/04 15:27:12;;;;;;;4.22;2.00;;;14.10;98.60;;;;;;5113526;28;20418;-61
2021/12/04 15:29:40;;;;;;;7.05;2.65;;;14.00;98.90;;;;;;5095305;28;20036;-61
2021/12/04 15:32:15;;;;;;;3.63;2.33;;;13.90;99.00;;;;;;5061729;28;20058;-60
2021/12/04 15:34:53;;;;;;;5.57;3.15;;;13.90;99.30;;;;;;5113596;28;20039;-60
2021/12/04 15:37:34;;;;;;;4.82;3.03;;;13.80;99.40;;;;;;5095224;28;20054;-62
2021/12/04 15:40:05;;;;;;;6.22;4.18;;;13.80;99.70;;;;;;5113496;28;20032;-62
2021/12/04 15:49:12;;;;;;;17.80;10.45;;;13.70;99.90;;;;;;5072240;28;20039;-61
2021/12/04 15:54:56;;;;;;;18.42;11.57;;;13.60;99.90;;;;;;5079147;28;20051;-60
2021/12/04 15:57:25;;;;;;;20.50;13.45;;;13.50;99.90;;;;;;5114587;28;20047;-61
2021/12/04 15:59:53;;;;;;;25.10;13.07;;;13.50;99.90;;;;;;5062969;28;20428;-61
2021/12/04 16:02:29;;;;;;;21.13;13.85;;;13.40;99.90;;;;;;5096438;28;20072;-60
2021/12/04 16:05:11;;;;;;;19.13;12.07;;;13.40;99.90;;;;;;5095824;28;20436;-61
2021/12/04 16:07:39;;;;;;;13.30;9.00;;;13.40;99.90;;;;;;5114427;28;20127;-60
2021/12/04 16:10:12;;;;;;;11.02;7.25;;;13.40;99.90;;;;;;5079131;28;20039;-61
2021/12/04 16:12:41;;;;;;;12.57;7.65;;;13.40;99.90;;;;;;5096215;28;20035;-61
2021/12/04 16:15:10;;;;;;;16.55;9.43;;;13.30;99.90;;;;;;5078814;28;20082;-61
2021/12/04 16:17:39;;;;;;;11.07;6.18;;;13.30;99.90;;;;;;5081991;28;20035;-61
2021/12/04 16:20:13;;;;;;;11.10;6.75;;;13.30;99.90;;;;;;5054191;28;20063;-61
2021/12/04 16:22:41;;;;;;;11.80;5.88;;;13.30;99.90;;;;;;5096810;27;20039;-60
2021/12/04 16:25:14;;;;;;;11.85;6.68;;;13.20;99.90;;;;;;5116465;28;20042;-60
2021/12/04 16:27:58;;;;;;;8.40;4.70;;;13.20;99.90;;;;;;5099335;27;20150;-60
2021/12/04 16:30:32;;;;;;;11.63;5.40;;;13.20;99.90;;;;;;5114276;27;20370;-62
2021/12/04 16:38:03;;;;;;;6.63;3.70;;;13.20;99.90;;;;;;5078784;28;20043;-60
2021/12/04 16:40:36;;;;;;;20.50;7.53;;;13.20;99.90;;;;;;5113590;28;20036;-61